Time;durP1;ratioP1;P1;durP2;ratioP2;P2;SDS_P1;SDS_P2;PMS_P1;PMS_P2;Temp;Humidity;BMP_temperature;BMP_pressure;BME280_temperature;BME280_humidity;BME280_pressure;Samples;Min_cycle;Max_cycle;Signal;HPM_P1;HPM_P2
2021/12/22 00:01:50;;;;;;;6.65;3.67;;;;;;;;;;5094572;28;20171;-68
2021/12/22 00:04:17;;;;;;;6.32;3.20;;;;;;;;;;5093184;28;20052;-66
2021/12/22 00:06:43;;;;;;;6.93;3.53;;;;;;;;;;5094668;28;20103;-74
2021/12/22 00:09:09;;;;;;;8.10;3.45;;;;;;;;;;5094443;28;20032;-67
2021/12/22 00:11:35;;;;;;;6.45;3.60;;;;;;;;;;5094172;28;20020;-72
2021/12/22 00:14:01;;;;;;;8.15;4.03;;;;;;;;;;5093950;28;20028;-73
2021/12/22 00:16:28;;;;;;;6.97;3.55;;;;;;;;;;5094206;28;20504;-69
2021/12/22 00:18:54;;;;;;;6.50;3.83;;;;;;;;;;5093994;28;20047;-69
2021/12/22 00:21:20;;;;;;;8.10;4.00;;;;;;;;;;5092961;28;20024;-68
2021/12/22 00:23:46;;;;;;;7.30;3.97;;;;;;;;;;5094267;28;20024;-68
2021/12/22 00:26:14;;;;;;;5.78;3.50;;;;;;;;;;5094211;28;20385;-66
2021/12/22 00:28:41;;;;;;;7.30;3.65;;;;;;;;;;5094262;28;20024;-68
2021/12/22 00:31:12;;;;;;;8.00;4.32;;;;;;;;;;5091605;28;20031;-73
2021/12/22 00:33:45;;;;;;;7.63;4.45;;;;;;;;;;5094057;28;20069;-69
2021/12/22 00:36:12;;;;;;;7.60;3.95;;;;;;;;;;5094095;28;20035;-70
2021/12/22 00:38:38;;;;;;;9.55;4.13;;;;;;;;;;5093983;28;20028;-70
2021/12/22 00:41:05;;;;;;;7.32;4.22;;;;;;;;;;5092636;28;20069;-73
2021/12/22 00:43:31;;;;;;;8.77;5.00;;;;;;;;;;5094151;28;20024;-71
2021/12/22 00:45:57;;;;;;;7.88;4.85;;;;;;;;;;5093804;28;20103;-72
2021/12/22 00:48:23;;;;;;;10.18;5.00;;;;;;;;;;5092462;28;20028;-74
2021/12/22 00:50:49;;;;;;;9.60;4.40;;;;;;;;;;5092324;28;20097;-69
2021/12/22 00:53:16;;;;;;;9.27;5.47;;;;;;;;;;5092510;28;20107;-73
2021/12/22 00:55:42;;;;;;;11.02;5.32;;;;;;;;;;5092467;28;20014;-72
2021/12/22 00:58:08;;;;;;;10.05;5.38;;;;;;;;;;5092562;28;20039;-69
2021/12/22 01:00:35;;;;;;;8.25;5.07;;;;;;;;;;5090912;28;20047;-68
2021/12/22 01:03:01;;;;;;;10.45;5.75;;;;;;;;;;5092488;28;20117;-71
2021/12/22 01:05:27;;;;;;;10.43;6.07;;;;;;;;;;5092440;28;20408;-72
2021/12/22 01:07:53;;;;;;;9.40;5.60;;;;;;;;;;5092317;28;20023;-69
2021/12/22 01:10:23;;;;;;;9.57;5.85;;;;;;;;;;5092214;28;20012;-67
2021/12/22 01:12:49;;;;;;;8.63;5.60;;;;;;;;;;5092168;28;20041;-73
2021/12/22 01:15:16;;;;;;;9.88;6.15;;;;;;;;;;5092164;28;20051;-69
2021/12/22 01:17:43;;;;;;;10.65;6.07;;;;;;;;;;5090936;28;20017;-70
2021/12/22 01:20:20;;;;;;;11.07;6.45;;;;;;;;;;5092192;28;20020;-69
2021/12/22 01:22:48;;;;;;;12.57;6.13;;;;;;;;;;5089753;28;20077;-66
2021/12/22 01:25:16;;;;;;;11.45;6.40;;;;;;;;;;5092171;28;20024;-69
2021/12/22 01:27:43;;;;;;;10.20;6.28;;;;;;;;;;5089218;28;20017;-71
2021/12/22 01:30:16;;;;;;;10.27;6.45;;;;;;;;;;5091784;28;20027;-71
2021/12/22 01:32:42;;;;;;;11.65;6.53;;;;;;;;;;5091921;28;20043;-70
2021/12/22 01:35:11;;;;;;;10.23;5.93;;;;;;;;;;5091859;28;20052;-66
2021/12/22 01:37:38;;;;;;;11.32;6.35;;;;;;;;;;5091687;28;20097;-69
2021/12/22 01:40:05;;;;;;;10.68;6.45;;;;;;;;;;5091681;28;20408;-72
2021/12/22 01:42:31;;;;;;;12.13;6.05;;;;;;;;;;5092639;28;20404;-66
2021/12/22 01:45:12;;;;;;;12.15;6.70;;;;;;;;;;5091484;28;20020;-70
2021/12/22 01:50:37;;;;;;;12.57;6.75;;;;;;;;;;5093086;28;20384;-71
2021/12/22 01:53:22;;;;;;;14.50;7.10;;;;;;;;;;5091018;28;20111;-70
2021/12/22 01:56:00;;;;;;;14.57;7.32;;;;;;;;;;5091275;28;20036;-70
2021/12/22 01:58:33;;;;;;;11.90;6.97;;;;;;;;;;5092549;28;20058;-69
2021/12/22 02:01:00;;;;;;;12.77;7.43;;;;;;;;;;5092390;28;20023;-72
2021/12/22 02:03:26;;;;;;;11.60;6.88;;;;;;;;;;5091780;28;20107;-71
2021/12/22 02:05:52;;;;;;;12.25;6.50;;;;;;;;;;5079228;28;20377;-71
2021/12/22 02:08:18;;;;;;;11.40;6.57;;;;;;;;;;5070586;28;20107;-68
2021/12/22 02:10:47;;;;;;;11.10;6.60;;;;;;;;;;5072011;28;20488;-74
2021/12/22 02:13:18;;;;;;;11.13;6.72;;;;;;;;;;5071938;28;20020;-73
2021/12/22 02:15:44;;;;;;;11.98;6.80;;;;;;;;;;5071715;28;20496;-73
2021/12/22 02:18:16;;;;;;;10.52;5.78;;;;;;;;;;5071953;28;20048;-73
2021/12/22 02:20:43;;;;;;;10.00;6.25;;;;;;;;;;5071875;28;20012;-74
2021/12/22 02:23:09;;;;;;;9.63;6.07;;;;;;;;;;5072007;28;20025;-74
2021/12/22 02:25:42;;;;;;;11.50;6.30;;;;;;;;;;5071859;28;20493;-72
2021/12/22 02:28:16;;;;;;;11.75;6.47;;;;;;;;;;5071630;28;20024;-73
2021/12/22 02:30:42;;;;;;;11.55;6.32;;;;;;;;;;5074322;28;20035;-71
2021/12/22 02:33:20;;;;;;;9.40;5.57;;;;;;;;;;5091485;28;20032;-73
2021/12/22 02:38:36;;;;;;;10.02;5.85;;;;;;;;;;5091724;28;20045;-65
2021/12/22 02:41:02;;;;;;;10.70;5.72;;;;;;;;;;5091979;28;20035;-73
2021/12/22 02:43:32;;;;;;;11.50;5.57;;;;;;;;;;5091843;28;20026;-73
2021/12/22 02:45:59;;;;;;;9.02;5.32;;;;;;;;;;5091631;28;20373;-73
2021/12/22 02:48:28;;;;;;;10.90;5.70;;;;;;;;;;5091774;28;20051;-71
2021/12/22 02:50:56;;;;;;;11.40;5.63;;;;;;;;;;5091329;28;20013;-65
2021/12/22 02:53:27;;;;;;;9.48;5.65;;;;;;;;;;5091484;28;20115;-65
2021/12/22 02:56:13;;;;;;;8.95;5.15;;;;;;;;;;5091485;28;20530;-73
2021/12/22 02:58:58;;;;;;;9.73;5.32;;;;;;;;;;5091546;28;20043;-66
2021/12/22 03:01:50;;;;;;;9.18;5.30;;;;;;;;;;5090372;28;20028;-65
2021/12/22 03:04:13;;;;;;;9.32;5.35;;;;;;;;;;5091322;28;20480;-64
2021/12/22 03:06:46;;;;;;;10.95;4.97;;;;;;;;;;5091487;28;20023;-71
2021/12/22 03:09:16;;;;;;;11.48;5.55;;;;;;;;;;5091701;28;20073;-71
2021/12/22 03:11:43;;;;;;;10.23;5.32;;;;;;;;;;5091664;28;20059;-72
2021/12/22 03:14:09;;;;;;;9.85;5.50;;;;;;;;;;5090674;28;20482;-72
2021/12/22 03:16:35;;;;;;;10.18;5.47;;;;;;;;;;5094654;28;20040;-73
2021/12/22 03:19:01;;;;;;;10.25;5.60;;;;;;;;;;5095372;28;20036;-72
2021/12/22 03:21:27;;;;;;;9.02;5.10;;;;;;;;;;5095541;28;20024;-73
2021/12/22 03:23:54;;;;;;;9.32;5.35;;;;;;;;;;5095525;28;20036;-72
2021/12/22 03:26:22;;;;;;;8.75;5.03;;;;;;;;;;5095342;28;20020;-73
2021/12/22 03:28:49;;;;;;;8.85;4.80;;;;;;;;;;5095294;28;20020;-73
2021/12/22 03:31:15;;;;;;;9.35;5.10;;;;;;;;;;5095080;28;20018;-73
2021/12/22 03:33:43;;;;;;;9.73;5.07;;;;;;;;;;5095236;28;20032;-72
2021/12/22 03:36:09;;;;;;;10.85;5.25;;;;;;;;;;5093886;28;20101;-69
2021/12/22 03:38:36;;;;;;;9.18;5.07;;;;;;;;;;5095098;28;20056;-72
2021/12/22 03:41:03;;;;;;;7.93;4.47;;;;;;;;;;5093790;28;20085;-69
2021/12/22 03:43:29;;;;;;;9.43;5.18;;;;;;;;;;5095110;28;20073;-69
2021/12/22 03:45:55;;;;;;;9.00;4.47;;;;;;;;;;5094925;28;20066;-73
2021/12/22 03:48:24;;;;;;;7.38;4.22;;;;;;;;;;5095125;28;20031;-72
2021/12/22 03:50:50;;;;;;;7.70;4.30;;;;;;;;;;5076985;28;20043;-71
2021/12/22 03:53:16;;;;;;;7.18;4.18;;;;;;;;;;5074551;28;20020;-72
2021/12/22 03:55:42;;;;;;;8.88;4.63;;;;;;;;;;5074574;28;20020;-72
2021/12/22 03:58:08;;;;;;;7.63;4.10;;;;;;;;;;5074476;28;20028;-71
2021/12/22 04:00:35;;;;;;;8.02;4.53;;;;;;;;;;5094805;28;20051;-64
2021/12/22 04:03:03;;;;;;;8.73;4.15;;;;;;;;;;5093508;28;20429;-64
2021/12/22 04:05:29;;;;;;;7.82;4.05;;;;;;;;;;5094702;28;20020;-65
2021/12/22 04:07:56;;;;;;;7.05;3.88;;;;;;;;;;5094390;28;20031;-64
2021/12/22 04:10:23;;;;;;;9.82;4.10;;;;;;;;;;5094328;28;20461;-64
2021/12/22 04:12:53;;;;;;;9.25;4.47;;;;;;;;;;5094567;28;20081;-65
2021/12/22 04:15:19;;;;;;;6.43;3.65;;;;;;;;;;5092882;28;20040;-64
2021/12/22 04:17:45;;;;;;;6.90;3.65;;;;;;;;;;5094131;28;20032;-66
2021/12/22 04:20:12;;;;;;;7.50;4.05;;;;;;;;;;5093997;28;20020;-65
2021/12/22 04:22:38;;;;;;;7.47;3.75;;;;;;;;;;5093772;28;20027;-70
2021/12/22 04:25:06;;;;;;;6.35;3.53;;;;;;;;;;5094128;28;20027;-64
2021/12/22 04:27:32;;;;;;;6.82;3.70;;;;;;;;;;5094137;28;20020;-72
2021/12/22 04:29:58;;;;;;;7.45;3.45;;;;;;;;;;5094721;28;20070;-68
2021/12/22 04:32:24;;;;;;;9.07;3.33;;;;;;;;;;5093570;28;20012;-65
2021/12/22 04:34:50;;;;;;;8.60;3.45;;;;;;;;;;5094675;28;20548;-72
2021/12/22 04:37:16;;;;;;;7.53;3.65;;;;;;;;;;5094289;28;20084;-70
2021/12/22 04:39:42;;;;;;;6.82;3.58;;;;;;;;;;5094256;28;20103;-72
2021/12/22 04:42:08;;;;;;;6.75;3.47;;;;;;;;;;5094340;28;20027;-71
2021/12/22 04:44:34;;;;;;;5.88;3.05;;;;;;;;;;5093005;28;20365;-67
2021/12/22 04:47:00;;;;;;;7.70;3.60;;;;;;;;;;5094349;28;20035;-71
2021/12/22 04:49:27;;;;;;;6.13;3.20;;;;;;;;;;5092905;28;20453;-72
2021/12/22 04:51:55;;;;;;;7.50;3.28;;;;;;;;;;5093843;28;20043;-72
2021/12/22 04:56:54;;;;;;;6.35;3.47;;;;;;;;;;5094237;28;20028;-72
2021/12/22 04:59:20;;;;;;;6.72;3.45;;;;;;;;;;5092527;28;20032;-66
2021/12/22 05:01:46;;;;;;;6.40;3.10;;;;;;;;;;5093771;28;20024;-71
2021/12/22 05:04:13;;;;;;;7.18;3.20;;;;;;;;;;5092562;28;20024;-68
2021/12/22 05:06:39;;;;;;;7.82;3.63;;;;;;;;;;5093859;28;20021;-71
2021/12/22 05:09:05;;;;;;;6.25;3.38;;;;;;;;;;5093840;28;20047;-66
2021/12/22 05:11:32;;;;;;;5.82;3.25;;;;;;;;;;5093599;28;20024;-70
2021/12/22 05:13:58;;;;;;;6.75;3.40;;;;;;;;;;5093903;28;20027;-69
2021/12/22 05:16:24;;;;;;;5.03;2.83;;;;;;;;;;5093627;28;20036;-71
2021/12/22 05:19:12;;;;;;;6.03;3.00;;;;;;;;;;5093708;28;20058;-72
2021/12/22 05:21:38;;;;;;;6.65;3.45;;;;;;;;;;5092364;28;20489;-70
2021/12/22 05:24:04;;;;;;;6.25;3.20;;;;;;;;;;5093607;28;20024;-72
2021/12/22 05:26:31;;;;;;;7.05;3.53;;;;;;;;;;5092331;28;20009;-70
2021/12/22 05:28:57;;;;;;;6.22;3.00;;;;;;;;;;5093525;28;20085;-68
2021/12/22 05:31:23;;;;;;;8.82;3.60;;;;;;;;;;5092654;28;20023;-66
2021/12/22 05:33:49;;;;;;;6.18;2.83;;;;;;;;;;5093129;28;20039;-70
2021/12/22 05:36:16;;;;;;;6.38;3.20;;;;;;;;;;5093279;28;20031;-67
2021/12/22 05:38:42;;;;;;;6.90;3.13;;;;;;;;;;5092165;28;20477;-66
2021/12/22 05:41:08;;;;;;;7.28;3.75;;;;;;;;;;5093292;28;20043;-69
2021/12/22 05:43:34;;;;;;;5.63;3.00;;;;;;;;;;5093310;28;20020;-69
2021/12/22 05:46:00;;;;;;;7.00;3.30;;;;;;;;;;5093053;28;20012;-72
2021/12/22 05:48:27;;;;;;;6.90;3.63;;;;;;;;;;5093230;28;20077;-70
2021/12/22 05:50:57;;;;;;;6.45;3.00;;;;;;;;;;5091471;28;20496;-67
2021/12/22 05:53:23;;;;;;;6.40;3.30;;;;;;;;;;5092861;28;20027;-69
2021/12/22 05:55:49;;;;;;;7.13;3.13;;;;;;;;;;5093023;28;20020;-70
2021/12/22 05:58:15;;;;;;;5.93;3.38;;;;;;;;;;5092982;28;20123;-68
2021/12/22 06:00:41;;;;;;;5.10;3.00;;;;;;;;;;5091564;28;20026;-71
2021/12/22 06:03:10;;;;;;;6.75;3.42;;;;;;;;;;5091456;28;20502;-73
2021/12/22 06:05:36;;;;;;;6.82;3.47;;;;;;;;;;5091270;28;20490;-69
2021/12/22 06:08:02;;;;;;;5.50;3.08;;;;;;;;;;5074393;28;20025;-72
2021/12/22 06:10:28;;;;;;;17.35;3.33;;;;;;;;;;5072183;28;20037;-69
2021/12/22 06:12:54;;;;;;;5.78;3.00;;;;;;;;;;5072184;28;20096;-69
2021/12/22 06:15:21;;;;;;;8.07;3.28;;;;;;;;;;5071053;28;20078;-69
2021/12/22 06:17:53;;;;;;;6.28;3.30;;;;;;;;;;5072333;28;20089;-66
2021/12/22 06:20:19;;;;;;;6.20;3.40;;;;;;;;;;5072346;28;20554;-66
2021/12/22 06:22:45;;;;;;;6.55;3.15;;;;;;;;;;5071161;28;20036;-71
2021/12/22 06:25:11;;;;;;;7.13;3.30;;;;;;;;;;5072317;28;20052;-67
2021/12/22 06:27:38;;;;;;;7.25;3.53;;;;;;;;;;5072239;28;20469;-67
2021/12/22 06:30:04;;;;;;;7.43;3.22;;;;;;;;;;5072218;28;20035;-66
2021/12/22 06:32:30;;;;;;;6.32;3.13;;;;;;;;;;5072292;28;20094;-65
2021/12/22 06:34:56;;;;;;;6.03;3.45;;;;;;;;;;5070672;28;20071;-66
2021/12/22 06:37:22;;;;;;;6.57;3.33;;;;;;;;;;5072239;28;20017;-65
2021/12/22 06:39:48;;;;;;;6.28;3.40;;;;;;;;;;5072182;28;20029;-70
2021/12/22 06:42:15;;;;;;;6.15;3.17;;;;;;;;;;5070751;28;20029;-69
2021/12/22 06:44:41;;;;;;;6.43;3.17;;;;;;;;;;5072148;28;20100;-66
2021/12/22 06:47:10;;;;;;;5.57;2.80;;;;;;;;;;5072240;28;20028;-66
2021/12/22 06:49:36;;;;;;;7.10;3.58;;;;;;;;;;5071956;28;20075;-72
2021/12/22 06:52:02;;;;;;;6.78;3.53;;;;;;;;;;5070898;28;20074;-67
2021/12/22 06:54:28;;;;;;;8.43;3.90;;;;;;;;;;5072195;28;20590;-70
2021/12/22 06:56:54;;;;;;;7.53;3.50;;;;;;;;;;5071924;28;20687;-70
2021/12/22 06:59:21;;;;;;;7.10;3.55;;;;;;;;;;5072109;28;20437;-69
2021/12/22 07:01:47;;;;;;;6.65;3.08;;;;;;;;;;5072180;28;20469;-71
2021/12/22 07:04:14;;;;;;;5.97;3.28;;;;;;;;;;5071933;28;20029;-69
2021/12/22 07:06:40;;;;;;;5.57;2.90;;;;;;;;;;5071998;28;20028;-71
2021/12/22 07:09:07;;;;;;;5.22;2.63;;;;;;;;;;5070384;28;20024;-65
2021/12/22 07:11:34;;;;;;;6.20;3.00;;;;;;;;;;5070238;28;20380;-66
2021/12/22 07:14:00;;;;;;;5.78;2.90;;;;;;;;;;5071877;28;20025;-67
2021/12/22 07:16:27;;;;;;;5.28;2.60;;;;;;;;;;5071489;28;20045;-70
2021/12/22 07:18:53;;;;;;;5.63;2.85;;;;;;;;;;5070289;28;20563;-68
2021/12/22 07:21:19;;;;;;;5.88;2.80;;;;;;;;;;5071591;28;20106;-69
2021/12/22 07:23:45;;;;;;;5.93;2.63;;;;;;;;;;5071567;28;20523;-66
2021/12/22 07:26:13;;;;;;;5.13;2.67;;;;;;;;;;5071656;28;20028;-69
2021/12/22 07:28:45;;;;;;;5.30;2.78;;;;;;;;;;5071752;28;20473;-68
2021/12/22 07:31:11;;;;;;;5.07;2.80;;;;;;;;;;5078600;28;20024;-69
2021/12/22 07:33:37;;;;;;;6.82;2.75;;;;;;;;;;5092007;28;20111;-69
2021/12/22 07:36:05;;;;;;;6.22;3.30;;;;;;;;;;5091818;28;20081;-69
2021/12/22 07:38:40;;;;;;;4.30;2.42;;;;;;;;;;5091389;28;20083;-71
2021/12/22 07:41:07;;;;;;;5.97;2.92;;;;;;;;;;5090061;28;20114;-69
2021/12/22 07:43:33;;;;;;;5.65;2.92;;;;;;;;;;5090195;28;20172;-67
2021/12/22 07:45:59;;;;;;;5.75;2.70;;;;;;;;;;5090254;28;20016;-71
2021/12/22 07:48:26;;;;;;;5.55;2.88;;;;;;;;;;5090279;28;20115;-70
2021/12/22 07:50:52;;;;;;;5.75;2.90;;;;;;;;;;5091421;28;20027;-71
2021/12/22 07:53:18;;;;;;;6.10;2.90;;;;;;;;;;5091423;28;20016;-67
2021/12/22 07:55:44;;;;;;;6.00;3.08;;;;;;;;;;5090432;28;20016;-67
2021/12/22 07:58:10;;;;;;;6.32;2.83;;;;;;;;;;5091397;28;20024;-70
2021/12/22 08:00:37;;;;;;;6.50;2.80;;;;;;;;;;5091548;28;20107;-70
2021/12/22 08:03:03;;;;;;;4.80;2.55;;;;;;;;;;5095068;28;20120;-69
2021/12/22 08:05:29;;;;;;;5.85;2.70;;;;;;;;;;5095257;28;20027;-65
2021/12/22 08:07:56;;;;;;;6.22;2.70;;;;;;;;;;5089851;28;20029;-69
2021/12/22 08:10:22;;;;;;;5.47;2.53;;;;;;;;;;5073184;28;20029;-72
2021/12/22 08:12:49;;;;;;;5.75;3.03;;;;;;;;;;5074657;28;20024;-66
2021/12/22 08:15:15;;;;;;;5.50;2.67;;;;;;;;;;5074551;28;20047;-65
2021/12/22 08:17:42;;;;;;;7.85;3.35;;;;;;;;;;5074649;28;20108;-70
2021/12/22 08:20:09;;;;;;;5.38;2.80;;;;;;;;;;5074633;28;20028;-70
2021/12/22 08:22:35;;;;;;;6.65;3.20;;;;;;;;;;5074728;28;20052;-69
2021/12/22 08:25:01;;;;;;;5.43;2.42;;;;;;;;;;5074657;28;20099;-70
2021/12/22 08:27:27;;;;;;;5.88;2.65;;;;;;;;;;5074594;28;20511;-68
2021/12/22 08:29:53;;;;;;;6.55;3.20;;;;;;;;;;5074370;28;20025;-67
2021/12/22 08:32:19;;;;;;;7.10;2.70;;;;;;;;;;5074516;28;20664;-72
2021/12/22 08:34:47;;;;;;;4.68;2.70;;;;;;;;;;5074027;28;20028;-70
2021/12/22 08:39:59;;;;;;;5.45;2.75;;;;;;;;;;5074522;28;20044;-66
2021/12/22 08:42:27;;;;;;;5.65;3.03;;;;;;;;;;5074301;28;20060;-68
2021/12/22 08:44:53;;;;;;;5.30;2.63;;;;;;;;;;5074304;28;20029;-70
2021/12/22 08:47:19;;;;;;;5.95;3.13;;;;;;;;;;5074156;28;20028;-68
2021/12/22 08:49:46;;;;;;;5.88;2.97;;;;;;;;;;5073993;28;20058;-68
2021/12/22 08:52:12;;;;;;;5.50;2.30;;;;;;;;;;5074231;28;20020;-68
2021/12/22 08:54:38;;;;;;;6.03;3.25;;;;;;;;;;5074142;28;20050;-67
2021/12/22 08:57:05;;;;;;;5.97;3.08;;;;;;;;;;5072653;28;20035;-67
2021/12/22 08:59:31;;;;;;;4.90;2.40;;;;;;;;;;5072229;28;20033;-68
2021/12/22 09:01:57;;;;;;;7.90;3.28;;;;;;;;;;5073941;28;20067;-67
2021/12/22 09:04:24;;;;;;;6.53;2.95;;;;;;;;;;5073995;28;20112;-69
2021/12/22 09:06:50;;;;;;;6.10;2.80;;;;;;;;;;5073887;28;20451;-66
2021/12/22 09:09:17;;;;;;;7.28;3.42;;;;;;;;;;5073658;28;20029;-69
2021/12/22 09:11:44;;;;;;;7.45;2.70;;;;;;;;;;5073840;28;20024;-72
2021/12/22 09:14:10;;;;;;;6.97;2.72;;;;;;;;;;5073759;28;20024;-69
2021/12/22 09:16:37;;;;;;;5.97;2.85;;;;;;;;;;5073328;28;20102;-67
2021/12/22 09:19:04;;;;;;;4.72;2.65;;;;;;;;;;5073349;28;20092;-67
2021/12/22 09:21:30;;;;;;;5.45;2.88;;;;;;;;;;5073632;28;20048;-64
2021/12/22 09:23:56;;;;;;;4.93;2.38;;;;;;;;;;5073483;28;20036;-67
2021/12/22 09:26:23;;;;;;;5.18;2.58;;;;;;;;;;5071889;28;20069;-65
2021/12/22 09:28:49;;;;;;;5.45;2.58;;;;;;;;;;5072946;28;20052;-66
2021/12/22 09:31:15;;;;;;;5.55;2.92;;;;;;;;;;5071686;28;20028;-66
2021/12/22 09:33:41;;;;;;;6.57;2.58;;;;;;;;;;5072899;28;20020;-65
2021/12/22 09:36:08;;;;;;;5.10;2.80;;;;;;;;;;5073161;28;20603;-67
2021/12/22 09:38:34;;;;;;;6.32;2.90;;;;;;;;;;5073238;28;20189;-65
2021/12/22 09:41:01;;;;;;;7.88;3.05;;;;;;;;;;5071660;28;20544;-66
2021/12/22 09:43:28;;;;;;;6.65;3.10;;;;;;;;;;5071764;28;20028;-66
2021/12/22 09:45:59;;;;;;;6.18;2.92;;;;;;;;;;5072953;28;20024;-66
2021/12/22 09:53:36;;;;;;;7.25;3.20;;;;;;;;;;5072884;28;20086;-65
2021/12/22 09:56:02;;;;;;;9.98;3.38;;;;;;;;;;5072642;28;20028;-67
2021/12/22 09:58:28;;;;;;;5.28;2.72;;;;;;;;;;5072737;28;20063;-67
2021/12/22 10:00:55;;;;;;;6.05;3.20;;;;;;;;;;5072559;28;20096;-72
2021/12/22 10:03:21;;;;;;;6.72;3.15;;;;;;;;;;5072873;28;20107;-70
2021/12/22 10:05:48;;;;;;;7.20;3.83;;;;;;;;;;5072448;28;20032;-68
2021/12/22 10:08:20;;;;;;;7.15;3.30;;;;;;;;;;5072617;28;20044;-68
2021/12/22 10:10:49;;;;;;;6.43;3.10;;;;;;;;;;5072426;28;20803;-67
2021/12/22 10:13:23;;;;;;;6.82;3.72;;;;;;;;;;5072188;28;20550;-71
2021/12/22 10:15:49;;;;;;;8.50;3.67;;;;;;;;;;5072325;28;20059;-65
2021/12/22 10:18:17;;;;;;;6.93;3.88;;;;;;;;;;5072552;28;20024;-67
2021/12/22 10:20:44;;;;;;;6.15;3.50;;;;;;;;;;5072492;28;20500;-69
2021/12/22 10:23:17;;;;;;;6.63;3.85;;;;;;;;;;5072190;28;20055;-71
2021/12/22 10:25:44;;;;;;;8.05;3.60;;;;;;;;;;5070613;28;20119;-70
2021/12/22 10:28:17;;;;;;;6.00;3.25;;;;;;;;;;5072211;28;20024;-71
2021/12/22 10:30:44;;;;;;;6.68;3.50;;;;;;;;;;5072231;28;20085;-66
2021/12/22 10:33:13;;;;;;;7.40;3.30;;;;;;;;;;5072241;28;20443;-66
2021/12/22 10:35:40;;;;;;;6.25;3.25;;;;;;;;;;5072176;28;20168;-71
2021/12/22 10:38:08;;;;;;;7.13;3.08;;;;;;;;;;5072181;28;20032;-68
2021/12/22 10:40:45;;;;;;;7.22;3.95;;;;;;;;;;5070863;28;20119;-68
2021/12/22 10:43:18;;;;;;;10.50;3.67;;;;;;;;;;5072230;28;20020;-67
2021/12/22 10:45:46;;;;;;;6.30;3.30;;;;;;;;;;5072111;28;20089;-69
2021/12/22 10:50:58;;;;;;;9.40;3.80;;;;;;;;;;5072199;28;20081;-69
2021/12/22 10:53:25;;;;;;;6.57;2.90;;;;;;;;;;5072302;28;20032;-66
2021/12/22 10:55:53;;;;;;;6.30;3.45;;;;;;;;;;5071234;28;20035;-65
2021/12/22 10:58:23;;;;;;;8.02;4.03;;;;;;;;;;5071944;28;20037;-65
2021/12/22 11:01:00;;;;;;;7.35;4.22;;;;;;;;;;5085379;28;20028;-68
2021/12/22 11:03:40;;;;;;;9.15;4.60;;;;;;;;;;5090465;28;20068;-70
2021/12/22 11:06:17;;;;;;;9.52;4.18;;;;;;;;;;5090573;28;20430;-67
2021/12/22 11:08:52;;;;;;;7.40;4.32;;;;;;;;;;5090778;28;20070;-70
2021/12/22 11:11:18;;;;;;;8.50;3.63;;;;;;;;;;5091919;28;20044;-68
2021/12/22 11:13:44;;;;;;;8.73;4.80;;;;;;;;;;5091884;28;20028;-66
2021/12/22 11:16:14;;;;;;;7.60;3.80;;;;;;;;;;5091737;28;20051;-64
2021/12/22 11:18:41;;;;;;;7.22;4.35;;;;;;;;;;5091580;28;20034;-68
2021/12/22 11:21:08;;;;;;;7.70;3.83;;;;;;;;;;5091761;28;20025;-67
2021/12/22 11:23:34;;;;;;;8.38;4.50;;;;;;;;;;5091731;28;20017;-65
2021/12/22 11:26:01;;;;;;;7.85;3.97;;;;;;;;;;5091509;28;20020;-66
2021/12/22 11:28:27;;;;;;;7.97;3.85;;;;;;;;;;5091713;28;20020;-65
2021/12/22 11:30:53;;;;;;;7.93;3.58;;;;;;;;;;5090360;28;20361;-65
2021/12/22 11:33:19;;;;;;;8.52;3.72;;;;;;;;;;5091770;28;20055;-65
2021/12/22 11:35:45;;;;;;;8.43;4.70;;;;;;;;;;5091877;28;20020;-68
2021/12/22 11:38:12;;;;;;;6.95;3.92;;;;;;;;;;5095603;28;20089;-66
2021/12/22 11:40:40;;;;;;;7.38;3.70;;;;;;;;;;5094159;28;20032;-73
2021/12/22 11:43:07;;;;;;;7.63;3.88;;;;;;;;;;5095779;28;20016;-71
2021/12/22 11:45:34;;;;;;;6.68;3.88;;;;;;;;;;5095670;28;20426;-73
2021/12/22 11:48:00;;;;;;;8.38;4.10;;;;;;;;;;5095191;28;20028;-72
2021/12/22 11:50:28;;;;;;;7.50;3.65;;;;;;;;;;5095252;28;20419;-70
2021/12/22 11:52:54;;;;;;;8.40;4.18;;;;;;;;;;5090955;28;20016;-72
2021/12/22 11:55:24;;;;;;;7.10;3.85;;;;;;;;;;5085063;28;20024;-72
2021/12/22 11:58:11;;;;;;;7.47;3.85;;;;;;;;;;5095216;28;20028;-71
2021/12/22 12:00:38;;;;;;;7.95;3.95;;;;;;;;;;5073355;28;20060;-68
2021/12/22 12:03:28;;;;;;;7.82;4.25;;;;;;;;;;5074763;28;20013;-70
2021/12/22 12:06:09;;;;;;;7.60;3.85;;;;;;;;;;5072078;28;20040;-70
2021/12/22 12:08:35;;;;;;;6.63;3.92;;;;;;;;;;5074727;28;20094;-72
2021/12/22 12:11:02;;;;;;;6.50;3.42;;;;;;;;;;5080542;28;20073;-67
2021/12/22 12:13:36;;;;;;;6.82;3.65;;;;;;;;;;5094835;28;20473;-71
2021/12/22 12:21:51;;;;;;;7.32;3.75;;;;;;;;;;5094625;28;20031;-72
2021/12/22 12:24:37;;;;;;;9.10;4.60;;;;;;;;;;5094378;28;20035;-68
2021/12/22 12:27:24;;;;;;;6.80;3.55;;;;;;;;;;5094532;28;20023;-68
2021/12/22 12:29:57;;;;;;;6.75;3.42;;;;;;;;;;5094408;28;20437;-67
2021/12/22 12:32:41;;;;;;;10.02;3.83;;;;;;;;;;5094469;28;20028;-68
2021/12/22 12:38:01;;;;;;;8.25;4.47;;;;;;;;;;5094146;28;20124;-66
2021/12/22 12:40:50;;;;;;;7.97;3.88;;;;;;;;;;5093996;28;20063;-69
2021/12/22 12:43:16;;;;;;;8.18;4.80;;;;;;;;;;5088567;28;20042;-68
2021/12/22 12:45:47;;;;;;;6.93;4.05;;;;;;;;;;5094351;28;20035;-68
2021/12/22 12:48:26;;;;;;;6.90;4.10;;;;;;;;;;5080902;28;20021;-65
2021/12/22 12:51:24;;;;;;;7.13;3.95;;;;;;;;;;5073987;28;20090;-65
2021/12/22 12:53:51;;;;;;;7.13;4.18;;;;;;;;;;5037605;28;20029;-67
2021/12/22 12:56:18;;;;;;;8.35;4.15;;;;;;;;;;5073748;28;20100;-68
2021/12/22 12:58:54;;;;;;;7.53;4.13;;;;;;;;;;5073725;28;20028;-67
2021/12/22 13:01:40;;;;;;;8.00;4.20;;;;;;;;;;5073805;28;20060;-67
2021/12/22 13:04:26;;;;;;;7.75;4.20;;;;;;;;;;5066072;28;20044;-68
2021/12/22 13:07:05;;;;;;;8.63;4.43;;;;;;;;;;5073412;28;20020;-68
2021/12/22 13:09:31;;;;;;;9.30;4.20;;;;;;;;;;5073641;28;20027;-68
2021/12/22 13:17:59;;;;;;;8.02;4.78;;;;;;;;;;5073444;28;20522;-70
2021/12/22 13:20:28;;;;;;;8.80;4.20;;;;;;;;;;5073394;28;20102;-70
2021/12/22 13:22:55;;;;;;;9.27;5.05;;;;;;;;;;5073567;28;20017;-71
2021/12/22 13:25:29;;;;;;;9.88;5.88;;;;;;;;;;5072172;28;20089;-74
2021/12/22 13:27:56;;;;;;;9.80;5.90;;;;;;;;;;5071527;28;20370;-70
2021/12/22 13:30:24;;;;;;;8.85;5.00;;;;;;;;;;5073277;28;20099;-72
2021/12/22 13:33:02;;;;;;;11.75;5.22;;;;;;;;;;5072912;28;20082;-67
2021/12/22 13:35:40;;;;;;;9.70;4.50;;;;;;;;;;5072812;28;20058;-70
2021/12/22 13:38:19;;;;;;;9.48;4.68;;;;;;;;;;5072675;28;20087;-67
2021/12/22 13:40:45;;;;;;;8.75;5.22;;;;;;;;;;5073031;28;20540;-71
2021/12/22 13:43:23;;;;;;;7.93;4.70;;;;;;;;;;5072861;28;20025;-69
2021/12/22 13:45:50;;;;;;;10.70;5.43;;;;;;;;;;5072659;28;20044;-70
2021/12/22 13:48:21;;;;;;;10.50;5.63;;;;;;;;;;5084432;28;20472;-67
2021/12/22 13:50:48;;;;;;;8.85;4.93;;;;;;;;;;5092778;28;20028;-66
2021/12/22 13:53:15;;;;;;;10.40;5.72;;;;;;;;;;5091722;28;20020;-67
2021/12/22 13:55:41;;;;;;;10.65;6.03;;;;;;;;;;5091498;28;20532;-65
2021/12/22 13:58:26;;;;;;;9.00;5.45;;;;;;;;;;5092558;28;20427;-71
2021/12/22 14:01:09;;;;;;;10.35;5.20;;;;;;;;;;5092460;28;20077;-71
2021/12/22 14:03:35;;;;;;;;;;;;;;;;;;5093053;28;20476;-70
2021/12/22 14:06:06;;;;;;;8.88;5.05;;;;;;;;;;5081026;28;19944;-70
2021/12/22 14:08:32;;;;;;;9.40;5.28;;;;;;;;;;5070951;28;20431;-71
2021/12/22 14:10:58;;;;;;;9.02;5.13;;;;;;;;;;5072164;28;20071;-71
2021/12/22 14:13:30;;;;;;;13.43;5.63;;;;;;;;;;5072065;28;20039;-68
2021/12/22 14:15:56;;;;;;;7.70;4.45;;;;;;;;;;5072036;28;20139;-70
2021/12/22 14:18:35;;;;;;;8.75;5.35;;;;;;;;;;5072000;28;20033;-69
2021/12/22 14:21:01;;;;;;;8.98;5.15;;;;;;;;;;5072268;28;20021;-70
2021/12/22 14:23:28;;;;;;;11.82;5.68;;;;;;;;;;5071793;28;20021;-66
2021/12/22 14:26:07;;;;;;;8.32;4.90;;;;;;;;;;5071833;28;20021;-67
2021/12/22 14:28:35;;;;;;;8.93;5.15;;;;;;;;;;5070528;28;20025;-67
2021/12/22 14:31:09;;;;;;;9.35;4.63;;;;;;;;;;5071657;28;20017;-67
2021/12/22 14:33:35;;;;;;;8.95;5.07;;;;;;;;;;5070416;28;20050;-68
2021/12/22 14:36:09;;;;;;;10.75;4.80;;;;;;;;;;5070170;28;20032;-70
2021/12/22 14:38:37;;;;;;;9.32;5.00;;;;;;;;;;5070342;28;20032;-69
2021/12/22 14:41:08;;;;;;;9.10;5.20;;;;;;;;;;5071818;28;20027;-66
2021/12/22 14:43:35;;;;;;;10.65;5.28;;;;;;;;;;5071903;28;20481;-66
2021/12/22 14:46:01;;;;;;;9.32;5.35;;;;;;;;;;5070428;28;20028;-66
2021/12/22 14:48:33;;;;;;;9.07;5.63;;;;;;;;;;5071446;28;20031;-68
2021/12/22 14:51:05;;;;;;;9.40;5.57;;;;;;;;;;5071525;28;20384;-67
2021/12/22 14:53:42;;;;;;;9.82;5.82;;;;;;;;;;5071558;28;20040;-68
2021/12/22 14:56:18;;;;;;;8.43;5.10;;;;;;;;;;5069980;28;20595;-67
2021/12/22 14:58:45;;;;;;;7.85;5.00;;;;;;;;;;5071377;28;20040;-66
2021/12/22 15:01:12;;;;;;;9.80;5.68;;;;;;;;;;5071633;28;20032;-67
2021/12/22 15:03:38;;;;;;;8.75;5.32;;;;;;;;;;5070400;28;20024;-66
2021/12/22 15:06:16;;;;;;;10.73;5.95;;;;;;;;;;5071424;28;20518;-66
2021/12/22 15:08:42;;;;;;;8.52;4.95;;;;;;;;;;5071245;28;20028;-67
2021/12/22 15:11:09;;;;;;;9.15;5.45;;;;;;;;;;5075711;28;20020;-69
2021/12/22 15:13:36;;;;;;;9.07;4.78;;;;;;;;;;5078119;28;20025;-69
2021/12/22 15:16:03;;;;;;;9.18;4.97;;;;;;;;;;5077914;28;20067;-69
2021/12/22 15:18:29;;;;;;;7.72;5.15;;;;;;;;;;5078214;28;20411;-70
2021/12/22 15:20:55;;;;;;;8.73;5.25;;;;;;;;;;5078234;28;20368;-69
2021/12/22 15:23:21;;;;;;;9.02;5.32;;;;;;;;;;5076766;28;20044;-70